Andrews Air Force Base
KADW : now visible

Airfield :











YOU CAN JOIN US ON...

 
LOGIN :

Register | Disclaimer

   EN    FR    IT 

 









Legend :    VFR   Marginal VFR   IFR   Intensive IFR   Very Intensive IFR
Visi :
Ceiling :
>= 8 km
>= 3000ft
5 to 8 km
1000 to 3000 ft
1500m to 5 km
500 to 1000 ft
800 to 1500m
200 to 500 ft
< 800m
< 200 ft
Symbols :   Thunderstorms  Fog  Heavy snow  Heavy precipitations  Wind > 20 kt






- Airport Elevation : 280 ft


KADW - Andrews Air Force Base

METAR N/A
TAF AMD TAF KADW
Valid from the 26 at 15:00 until the 27 at 15:00 UTC


261500Z 2615/2715 06009KT 6000 BR OVC003 650035 QNH2990INS
BECMG 2616/2617 VRB03KT 4800 -DZ BR OVC005 620055 QNH2980INS
BECMG 2705/2706 26003KT 6000 BR SCT002 QNH2988INS
BECMG 2708/2709 29003KT 3200 BR BKN002 BKN050 QNH2992INS
BECMG 2711/2712 31008KT 9999 NSW FEW005 BKN050 QNH2998INS TX02/2621Z TN00/2615Z
KZDC FIR / North America



MET'MAP, your aeronautical weather chart ! - Copyright ORBIFLY December 2007 - Disclaimer

ORBIFLY MET'MAP TEAM :

Programming & Development : Alexandra Zaïnal
Concept & original design : Baudouin d'Aumeries
Assistance for programming : Marc-Olivier Méhu
Technical & hardware support : Manuel Goepfert

Contact : metmap@orbifly.com




SOURCES & CREDITS :

   NOAA       Earth
Advisory